createdAt,value
2018-09-03T00:02:21.853Z,102010.36
2018-09-03T00:04:50.629Z,102003.17
2018-09-03T00:07:20.009Z,101995.61
2018-09-03T00:09:50.283Z,101997.30
2018-09-03T00:12:19.379Z,101989.08
2018-09-03T00:14:48.135Z,101992.61
2018-09-03T00:17:17.544Z,101988.50
2018-09-03T00:19:46.591Z,101983.52
2018-09-03T00:22:15.654Z,101983.02
2018-09-03T00:24:45.309Z,101973.99
2018-09-03T00:27:14.437Z,101976.95
2018-09-03T00:29:43.169Z,101975.28
2018-09-03T00:32:17.019Z,101971.17
2018-09-03T00:34:50.893Z,101954.38
2018-09-03T00:38:23.199Z,101954.30
2018-09-03T00:40:57.222Z,101961.45
2018-09-03T00:43:31.180Z,101952.68
2018-09-03T00:46:05.211Z,101954.84
2018-09-03T00:48:34.591Z,101952.19
2018-09-03T00:51:03.364Z,101951.72
2018-09-03T00:53:32.345Z,101950.77
2018-09-03T00:56:01.138Z,101953.02
2018-09-03T00:58:30.194Z,101952.77
2018-09-03T01:00:59.327Z,101948.44
2018-09-03T01:03:28.102Z,101951.81
2018-09-03T01:05:56.874Z,101940.13
2018-09-03T01:08:25.890Z,101935.31
2018-09-03T01:10:54.882Z,101931.41
2018-09-03T01:13:23.641Z,101922.97
2018-09-03T01:15:52.657Z,101919.65
2018-09-03T01:18:21.402Z,101911.51
2018-09-03T01:20:50.155Z,101909.27
2018-09-03T01:23:18.993Z,101908.89
2018-09-03T01:25:48.808Z,101903.41
2018-09-03T01:28:17.886Z,101904.53
2018-09-03T01:30:47.045Z,101902.41
2018-09-03T01:33:16.115Z,101902.20
2018-09-03T01:35:44.900Z,101899.46
2018-09-03T01:38:14.097Z,101894.19
2018-09-03T01:40:43.205Z,101891.32
2018-09-03T01:43:12.221Z,101897.84
2018-09-03T01:45:41.434Z,101900.45
2018-09-03T01:48:11.493Z,101896.75
2018-09-03T01:50:40.943Z,101900.61
2018-09-03T01:53:09.987Z,101903.35
2018-09-03T01:55:39.331Z,101898.99
2018-09-03T01:58:08.429Z,101901.02
2018-09-03T02:00:37.385Z,101898.83
2018-09-03T02:03:06.183Z,101899.98
2018-09-03T02:05:35.207Z,101896.41
2018-09-03T02:08:04.392Z,101898.83
2018-09-03T02:10:33.163Z,101902.39
2018-09-03T02:13:02.281Z,101884.33
2018-09-03T02:15:31.425Z,101890.06
2018-09-03T02:18:00.402Z,101893.59
2018-09-03T02:20:29.561Z,101886.50
2018-09-03T02:22:58.790Z,101890.28
2018-09-03T02:25:27.591Z,101893.02
2018-09-03T02:27:56.378Z,101892.14
2018-09-03T02:30:25.271Z,101887.78
2018-09-03T02:32:54.529Z,101884.80
2018-09-03T02:35:23.252Z,101884.91
2018-09-03T02:37:52.239Z,101890.11
2018-09-03T02:40:21.635Z,101899.70
2018-09-03T02:42:50.999Z,101899.45
2018-09-03T02:45:19.764Z,101904.44
2018-09-03T02:47:48.594Z,101896.22
2018-09-03T02:50:17.881Z,101906.00
2018-09-03T02:52:46.611Z,101909.78
2018-09-03T02:55:15.431Z,101907.79
2018-09-03T02:57:44.928Z,101906.89
2018-09-03T03:00:13.708Z,101911.48
2018-09-03T03:02:42.441Z,101918.27
2018-09-03T03:05:11.423Z,101917.11
2018-09-03T03:07:40.388Z,101910.17
2018-09-03T03:10:09.130Z,101918.81
2018-09-03T03:12:38.130Z,101909.14
2018-09-03T03:15:06.888Z,101909.05
2018-09-03T03:17:35.691Z,101907.35
2018-09-03T03:20:04.429Z,101903.24
2018-09-03T03:22:33.817Z,101902.91
2018-09-03T03:25:02.958Z,101899.13
2018-09-03T03:27:31.752Z,101896.72
2018-09-03T03:30:00.767Z,101885.97
2018-09-03T03:32:29.794Z,101881.31
2018-09-03T03:34:58.937Z,101877.99
2018-09-03T03:37:28.270Z,101875.74
2018-09-03T03:39:57.045Z,101874.63
2018-09-03T03:42:26.236Z,101878.16
2018-09-03T03:44:55.279Z,101875.74
2018-09-03T03:47:24.021Z,101879.86
2018-09-03T03:49:53.112Z,101872.92
2018-09-03T03:52:22.241Z,101860.80
2018-09-03T03:54:51.427Z,101868.72
2018-09-03T03:57:20.835Z,101862.66
2018-09-03T03:59:50.131Z,101867.56
2018-09-03T04:02:19.160Z,101864.52
2018-09-03T04:04:48.234Z,101869.67
2018-09-03T04:07:17.395Z,101858.80
2018-09-03T04:09:46.182Z,101863.16
2018-09-03T04:12:14.966Z,101863.70
2018-09-03T04:14:43.819Z,101863.70
2018-09-03T04:17:12.861Z,101867.81
2018-09-03T04:19:41.732Z,101873.87
2018-09-03T04:22:10.498Z,101868.64
2018-09-03T04:24:39.579Z,101865.31
2018-09-03T04:27:08.904Z,101860.08
2018-09-03T04:29:37.644Z,101862.83
2018-09-03T04:32:06.718Z,101854.84
2018-09-03T04:34:35.472Z,101852.56
2018-09-03T04:37:04.330Z,101831.91
2018-09-03T04:39:33.436Z,101818.78
2018-09-03T04:42:02.576Z,101826.18
2018-09-03T04:44:32.064Z,101827.00
2018-09-03T04:47:01.126Z,101827.22
2018-09-03T04:49:30.627Z,101838.77
2018-09-03T04:51:59.455Z,101842.88
2018-09-03T04:54:28.328Z,101843.55
2018-09-03T04:56:57.397Z,101844.34
2018-09-03T04:59:26.162Z,101841.27
2018-09-03T05:01:54.922Z,101846.99
2018-09-03T05:04:23.642Z,101840.38
2018-09-03T05:06:52.440Z,101845.53
2018-09-03T05:09:21.476Z,101847.48
2018-09-03T05:11:51.047Z,101853.18
2018-09-03T05:14:20.131Z,101857.30
2018-09-03T05:16:49.149Z,101852.05
2018-09-03T05:19:18.294Z,101848.19
2018-09-03T05:21:47.039Z,101841.80
2018-09-03T05:24:16.446Z,101840.12
2018-09-03T05:26:45.622Z,101838.88
2018-09-03T05:29:14.544Z,101820.34
2018-09-03T05:31:43.725Z,101823.66
2018-09-03T05:34:12.510Z,101829.36
2018-09-03T05:36:41.518Z,101827.99
2018-09-03T05:39:12.007Z,101830.98
2018-09-03T05:41:42.520Z,101826.87
2018-09-03T05:44:11.558Z,101819.67
2018-09-03T05:46:40.771Z,101817.18
2018-09-03T05:49:09.961Z,101816.76
2018-09-03T05:51:39.052Z,101808.20
2018-09-03T05:54:08.143Z,101805.11
2018-09-03T05:56:36.967Z,101803.98
2018-09-03T05:59:06.125Z,101808.50
2018-09-03T06:01:34.933Z,101814.95
2018-09-03T06:04:04.436Z,101819.08
2018-09-03T06:06:33.184Z,101821.18
2018-09-03T06:09:10.456Z,101819.93
2018-09-03T06:11:40.038Z,101811.85
2018-09-03T06:14:09.274Z,101816.67
2018-09-03T06:16:38.373Z,101815.69
2018-09-03T06:19:07.124Z,101822.67
2018-09-03T06:21:36.100Z,101821.54
2018-09-03T06:24:04.850Z,101825.92
2018-09-03T06:26:33.615Z,101816.61
2018-09-03T06:29:02.444Z,101816.18
2018-09-03T06:31:31.212Z,101818.40
2018-09-03T06:33:59.971Z,101817.63
2018-09-03T06:36:28.793Z,101816.84
2018-09-03T06:38:57.750Z,101820.58
2018-09-03T06:41:26.526Z,101830.34
2018-09-03T06:43:55.574Z,101829.80
2018-09-03T06:46:24.558Z,101826.06
2018-09-03T06:48:53.741Z,101822.88
2018-09-03T06:51:22.826Z,101824.25
2018-09-03T06:53:52.547Z,101824.25
2018-09-03T06:56:21.278Z,101827.89
2018-09-03T06:58:50.407Z,101824.59
2018-09-03T07:01:19.131Z,101823.12
2018-09-03T07:03:48.161Z,101819.23
2018-09-03T07:06:17.181Z,101817.73
2018-09-03T07:08:46.248Z,101819.24
2018-09-03T07:11:14.969Z,101818.90
2018-09-03T07:13:43.756Z,101808.94
2018-09-03T07:16:12.834Z,101818.55
2018-09-03T07:18:41.595Z,101819.00
2018-09-03T07:21:10.768Z,101818.80
2018-09-03T07:23:39.769Z,101813.55
2018-09-03T07:26:08.783Z,101810.56
2018-09-03T07:28:37.874Z,101814.92
2018-09-03T07:31:06.586Z,101797.44
2018-09-03T07:33:35.320Z,101797.95
2018-09-03T07:36:04.376Z,101791.08
2018-09-03T07:38:33.151Z,101793.61
2018-09-03T07:41:02.116Z,101795.45
2018-09-03T07:43:31.107Z,101796.06
2018-09-03T07:46:00.399Z,101799.73
2018-09-03T07:48:29.146Z,101800.88
2018-09-03T07:50:57.973Z,101804.10
2018-09-03T07:53:26.911Z,101794.34
2018-09-03T07:55:55.690Z,101792.06
2018-09-03T07:58:24.455Z,101796.98
2018-09-03T08:00:53.423Z,101799.97
2018-09-03T08:03:22.181Z,101807.77
2018-09-03T08:05:51.924Z,101792.19
2018-09-03T08:08:23.839Z,101785.67
2018-09-03T08:10:52.686Z,101779.48
2018-09-03T08:13:26.616Z,101777.09
2018-09-03T08:16:01.525Z,101774.45
2018-09-03T08:18:30.626Z,101772.27
2018-09-03T08:20:59.425Z,101779.50
2018-09-03T08:23:28.389Z,101777.43
2018-09-03T08:25:57.793Z,101789.03
2018-09-03T08:28:27.059Z,101782.86
2018-09-03T08:30:56.171Z,101776.98
2018-09-03T08:33:24.886Z,101786.03
2018-09-03T08:35:53.642Z,101787.65
2018-09-03T08:38:23.034Z,101784.20
2018-09-03T08:40:52.078Z,101781.41
2018-09-03T08:43:21.551Z,101776.80
2018-09-03T08:45:50.323Z,101778.50
2018-09-03T08:48:19.074Z,101780.88
2018-09-03T08:50:47.775Z,101773.70
2018-09-03T08:53:17.284Z,101772.09
2018-09-03T08:55:46.117Z,101770.13
2018-09-03T08:58:15.177Z,101765.73
2018-09-03T09:00:44.153Z,101759.55
2018-09-03T09:03:18.483Z,101753.92
2018-09-03T09:05:47.699Z,101748.28
2018-09-03T09:08:16.397Z,101740.10
2018-09-03T09:10:45.155Z,101735.41
2018-09-03T09:13:13.937Z,101731.52
2018-09-03T09:15:42.916Z,101724.77
2018-09-03T09:18:12.174Z,101725.02
2018-09-03T09:20:40.951Z,101726.09
2018-09-03T09:23:09.691Z,101720.71
2018-09-03T09:25:38.784Z,101719.73
2018-09-03T09:28:07.836Z,101715.05
2018-09-03T09:30:36.917Z,101720.55
2018-09-03T09:33:05.991Z,101718.25
2018-09-03T09:35:34.850Z,101716.88
2018-09-03T09:38:03.875Z,101719.22
2018-09-03T09:40:33.052Z,101719.48
2018-09-03T09:43:01.894Z,101712.64
2018-09-03T09:45:30.857Z,101706.79
2018-09-03T09:47:59.594Z,101696.08
2018-09-03T09:50:28.337Z,101698.98
2018-09-03T09:52:57.149Z,101695.35
2018-09-03T09:55:26.352Z,101702.50
2018-09-03T09:57:55.079Z,101701.19
2018-09-03T10:00:29.057Z,101699.62
2018-09-03T10:02:58.425Z,101701.79
2018-09-03T10:05:27.761Z,101701.63
2018-09-03T10:07:56.575Z,101699.64
2018-09-03T10:10:25.816Z,101692.75
2018-09-03T10:12:54.615Z,101690.10
2018-09-03T10:15:23.497Z,101701.92
2018-09-03T10:17:52.496Z,101695.27
2018-09-03T10:20:21.280Z,101693.48
2018-09-03T10:22:50.361Z,101697.59
2018-09-03T10:25:19.391Z,101690.26
2018-09-03T10:27:48.201Z,101694.04
2018-09-03T10:30:16.937Z,101687.20
2018-09-03T10:32:46.443Z,101685.52
2018-09-03T10:35:15.168Z,101682.39
2018-09-03T10:37:43.857Z,101680.61
2018-09-03T10:40:12.947Z,101681.03
2018-09-03T10:42:42.113Z,101674.96
2018-09-03T10:45:10.870Z,101681.54
2018-09-03T10:47:39.939Z,101675.95
2018-09-03T10:50:08.914Z,101673.44
2018-09-03T10:52:38.003Z,101668.48
2018-09-03T10:55:07.466Z,101674.61
2018-09-03T10:57:36.609Z,101668.53
2018-09-03T11:00:06.020Z,101672.78
2018-09-03T11:02:35.045Z,101665.77
2018-09-03T11:05:04.106Z,101663.00
2018-09-03T11:07:32.892Z,101659.76
2018-09-03T11:10:01.681Z,101653.39
2018-09-03T11:12:30.735Z,101643.59
2018-09-03T11:14:59.950Z,101648.47
2018-09-03T11:17:28.720Z,101644.66
2018-09-03T11:20:00.105Z,101648.51
2018-09-03T11:22:29.478Z,101649.74
2018-09-03T11:24:59.443Z,101643.64
2018-09-03T11:27:28.978Z,101636.27
2018-09-03T11:29:58.237Z,101634.34
2018-09-03T11:32:27.548Z,101633.80
2018-09-03T11:34:56.375Z,101625.50
2018-09-03T11:37:25.489Z,101630.33
2018-09-03T11:39:55.242Z,101629.30
2018-09-03T11:42:24.138Z,101629.75
2018-09-03T11:44:52.847Z,101620.03
2018-09-03T11:47:21.583Z,101624.48
2018-09-03T11:49:50.646Z,101620.53
2018-09-03T11:52:19.371Z,101614.89
2018-09-03T11:54:48.124Z,101621.59
2018-09-03T11:57:17.489Z,101612.87
2018-09-03T11:59:46.578Z,101613.53
2018-09-03T12:02:15.283Z,101612.52
2018-09-03T12:04:44.082Z,101606.94
2018-09-03T12:07:13.054Z,101611.09
2018-09-03T12:09:42.471Z,101611.02
2018-09-03T12:12:11.258Z,101602.40
2018-09-03T12:14:42.431Z,101605.78
2018-09-03T12:17:11.264Z,101598.63
2018-09-03T12:19:40.822Z,101596.13
2018-09-03T12:22:10.094Z,101601.43
2018-09-03T12:24:38.835Z,101598.20
2018-09-03T12:27:07.764Z,101595.68
2018-09-03T12:29:36.821Z,101594.45
2018-09-03T12:32:05.578Z,101587.09
2018-09-03T12:34:34.587Z,101593.97
2018-09-03T12:37:03.482Z,101593.19
2018-09-03T12:39:32.172Z,101588.65
2018-09-03T12:42:01.162Z,101579.13
2018-09-03T12:44:30.897Z,101581.27
2018-09-03T12:47:00.314Z,101577.95
2018-09-03T12:49:29.094Z,101573.63
2018-09-03T12:51:58.231Z,101570.66
2018-09-03T12:54:27.344Z,101571.34
2018-09-03T12:56:56.108Z,101565.41
2018-09-03T12:59:24.899Z,101571.84
2018-09-03T13:01:53.691Z,101563.09
2018-09-03T13:04:22.440Z,101568.41
2018-09-03T13:06:58.094Z,101563.06
2018-09-03T13:09:27.073Z,101568.86
2018-09-03T13:11:55.848Z,101568.99
2018-09-03T13:14:24.588Z,101570.42
2018-09-03T13:16:53.598Z,101566.36
2018-09-03T13:19:22.921Z,101563.02
2018-09-03T13:21:52.466Z,101563.92
2018-09-03T13:24:21.556Z,101561.91
2018-09-03T13:26:50.335Z,101559.30
2018-09-03T13:29:19.219Z,101552.29
2018-09-03T13:31:48.035Z,101552.17
2018-09-03T13:34:17.134Z,101558.16
2018-09-03T13:36:45.902Z,101555.27
2018-09-03T13:39:15.766Z,101547.00
2018-09-03T13:41:44.549Z,101549.67
2018-09-03T13:44:13.273Z,101548.53
2018-09-03T13:46:42.075Z,101544.76
2018-09-03T13:49:10.819Z,101549.55
2018-09-03T13:51:40.030Z,101543.81
2018-09-03T13:54:08.730Z,101538.03
2018-09-03T13:56:37.554Z,101539.98
2018-09-03T13:59:06.305Z,101529.45
2018-09-03T14:01:35.103Z,101521.63
2018-09-03T14:04:04.186Z,101520.39
2018-09-03T14:06:33.789Z,101518.31
2018-09-03T14:09:03.235Z,101518.22
2018-09-03T14:11:32.006Z,101510.98
2018-09-03T14:14:00.787Z,101510.96
2018-09-03T14:16:30.259Z,101509.18
2018-09-03T14:18:59.070Z,101505.23
2018-09-03T14:21:28.535Z,101503.13
2018-09-03T14:23:57.475Z,101505.30
2018-09-03T14:26:26.666Z,101506.36
2018-09-03T14:28:55.418Z,101509.30
2018-09-03T14:31:24.811Z,101500.72
2018-09-03T14:33:53.838Z,101492.13
2018-09-03T14:36:23.215Z,101489.37
2018-09-03T14:38:55.100Z,101490.13
2018-09-03T14:41:23.824Z,101497.89
2018-09-03T14:43:52.816Z,101495.61
2018-09-03T14:46:22.259Z,101497.13
2018-09-03T14:48:51.035Z,101494.95
2018-09-03T14:51:20.130Z,101497.23
2018-09-03T14:53:49.083Z,101493.20
2018-09-03T14:56:18.136Z,101492.62
2018-09-03T14:58:46.862Z,101491.69
2018-09-03T15:01:16.063Z,101492.27
2018-09-03T15:03:44.840Z,101495.68
2018-09-03T15:06:13.583Z,101491.53
2018-09-03T15:08:42.630Z,101490.63
2018-09-03T15:11:11.339Z,101495.13
2018-09-03T15:13:40.099Z,101490.67
2018-09-03T15:16:08.866Z,101494.25
2018-09-03T15:18:37.985Z,101494.20
2018-09-03T15:21:06.715Z,101495.41
2018-09-03T15:23:35.450Z,101487.84
2018-09-03T15:26:04.576Z,101486.28
2018-09-03T15:28:33.278Z,101488.62
2018-09-03T15:31:02.422Z,101488.45
2018-09-03T15:33:31.238Z,101485.39
2018-09-03T15:35:59.993Z,101490.81
2018-09-03T15:38:28.765Z,101482.48
2018-09-03T15:40:58.164Z,101484.20
2018-09-03T15:43:27.567Z,101480.36
2018-09-03T15:45:56.246Z,101484.38
2018-09-03T15:48:25.630Z,101485.73
2018-09-03T15:50:54.698Z,101481.80
2018-09-03T15:53:24.295Z,101478.05
2018-09-03T15:55:53.102Z,101483.30
2018-09-03T15:58:21.832Z,101480.97
2018-09-03T16:00:50.973Z,101478.27
2018-09-03T16:03:19.972Z,101478.50
2018-09-03T16:05:49.022Z,101482.69
2018-09-03T16:08:18.105Z,101478.20
2018-09-03T16:10:46.839Z,101476.45
2018-09-03T16:13:15.897Z,101481.48
2018-09-03T16:15:44.993Z,101480.38
2018-09-03T16:18:14.317Z,101477.89
2018-09-03T16:20:43.416Z,101479.33
2018-09-03T16:23:12.152Z,101470.48
2018-09-03T16:25:40.988Z,101466.22
2018-09-03T16:28:10.036Z,101465.86
2018-09-03T16:30:39.812Z,101463.69
2018-09-03T16:33:08.634Z,101467.66
2018-09-03T16:35:37.355Z,101464.27
2018-09-03T16:38:06.816Z,101461.70
2018-09-03T16:40:35.893Z,101459.89
2018-09-03T16:43:04.914Z,101458.50
2018-09-03T16:45:33.696Z,101462.94
2018-09-03T16:48:02.910Z,101463.55
2018-09-03T16:50:31.658Z,101468.31
2018-09-03T16:53:00.408Z,101467.73
2018-09-03T16:55:29.142Z,101475.84
2018-09-03T16:57:58.503Z,101469.27
2018-09-03T17:00:27.785Z,101469.62
2018-09-03T17:02:56.494Z,101472.00
2018-09-03T17:05:25.499Z,101474.80
2018-09-03T17:07:54.330Z,101475.62
2018-09-03T17:10:23.542Z,101466.28
2018-09-03T17:12:52.342Z,101467.31
2018-09-03T17:15:21.323Z,101467.91
2018-09-03T17:17:50.627Z,101455.56
2018-09-03T17:20:19.550Z,101458.75
2018-09-03T17:22:48.259Z,101459.55
2018-09-03T17:25:16.987Z,101464.75
2018-09-03T17:27:45.808Z,101465.98
2018-09-03T17:30:15.089Z,101463.42
2018-09-03T17:32:44.173Z,101462.03
2018-09-03T17:35:13.510Z,101463.47
2018-09-03T17:37:42.304Z,101467.04
2018-09-03T17:40:11.334Z,101465.27
2018-09-03T17:42:40.140Z,101466.84
2018-09-03T17:45:10.102Z,101460.50
2018-09-03T17:47:39.847Z,101465.09
2018-09-03T17:50:09.389Z,101462.34
2018-09-03T17:52:38.536Z,101471.89
2018-09-03T17:55:08.134Z,101474.30
2018-09-03T17:57:37.324Z,101474.10
2018-09-03T18:00:06.697Z,101473.73
2018-09-03T18:02:36.128Z,101470.77
2018-09-03T18:05:05.240Z,101474.56
2018-09-03T18:07:34.529Z,101471.20
2018-09-03T18:10:03.919Z,101467.22
2018-09-03T18:12:32.947Z,101472.95
2018-09-03T18:15:01.988Z,101469.78
2018-09-03T18:17:30.774Z,101471.20
2018-09-03T18:19:59.903Z,101471.80
2018-09-03T18:22:28.627Z,101474.58
2018-09-03T18:24:57.362Z,101471.00
2018-09-03T18:27:26.917Z,101474.97
2018-09-03T18:29:55.702Z,101474.77
2018-09-03T18:32:24.469Z,101475.90
2018-09-03T18:34:53.189Z,101471.13
2018-09-03T18:37:22.336Z,101475.91
2018-09-03T18:39:51.072Z,101473.70
2018-09-03T18:42:20.041Z,101477.45
2018-09-03T18:44:49.387Z,101479.59
2018-09-03T18:47:18.470Z,101486.90
2018-09-03T18:49:47.675Z,101490.39
2018-09-03T18:52:16.523Z,101490.56
2018-09-03T18:54:45.508Z,101490.91
2018-09-03T18:57:14.239Z,101485.33
2018-09-03T18:59:43.590Z,101484.88
2018-09-03T19:02:12.366Z,101486.78
2018-09-03T19:04:41.115Z,101479.19
2018-09-03T19:07:10.129Z,101486.84
2018-09-03T19:09:38.904Z,101487.56
2018-09-03T19:12:08.298Z,101495.38
2018-09-03T19:14:37.017Z,101490.35
2018-09-03T19:17:05.928Z,101494.98
2018-09-03T19:19:34.967Z,101496.85
2018-09-03T19:22:03.853Z,101495.77
2018-09-03T19:24:32.942Z,101497.67
2018-09-03T19:27:01.790Z,101500.52
2018-09-03T19:29:30.584Z,101497.47
2018-09-03T19:31:59.595Z,101495.20
2018-09-03T19:34:29.243Z,101500.52
2018-09-03T19:36:57.983Z,101494.69
2018-09-03T19:39:27.186Z,101494.81
2018-09-03T19:41:55.938Z,101495.52
2018-09-03T19:44:25.035Z,101496.07
2018-09-03T19:46:54.366Z,101491.62
2018-09-03T19:49:23.111Z,101500.28
2018-09-03T19:51:51.903Z,101498.79
2018-09-03T19:54:20.681Z,101499.72
2018-09-03T19:56:50.170Z,101500.47
2018-09-03T19:59:18.967Z,101499.03
2018-09-03T20:01:47.703Z,101500.52
2018-09-03T20:04:16.468Z,101496.86
2018-09-03T20:06:45.837Z,101495.45
2018-09-03T20:09:14.665Z,101495.39
2018-09-03T20:11:44.361Z,101493.92
2018-09-03T20:14:16.284Z,101494.23
2018-09-03T20:16:45.197Z,101494.77
2018-09-03T20:19:13.917Z,101493.92
2018-09-03T20:21:42.968Z,101485.95
2018-09-03T20:24:12.042Z,101493.86
2018-09-03T20:26:41.150Z,101499.67
2018-09-03T20:29:10.369Z,101489.52
2018-09-03T20:31:39.393Z,101491.31
2018-09-03T20:34:08.164Z,101490.63
2018-09-03T20:36:37.628Z,101490.15
2018-09-03T20:39:07.293Z,101492.13
2018-09-03T20:41:36.047Z,101492.44
2018-09-03T20:44:04.900Z,101488.16
2018-09-03T20:46:33.736Z,101490.52
2018-09-03T20:49:02.734Z,101486.74
2018-09-03T20:51:31.817Z,101488.28
2018-09-03T20:54:01.107Z,101487.61
2018-09-03T20:56:29.907Z,101497.03
2018-09-03T20:58:58.762Z,101496.02
2018-09-03T21:01:28.024Z,101490.73
2018-09-03T21:03:57.224Z,101486.36
2018-09-03T21:06:25.976Z,101489.23
2018-09-03T21:08:54.763Z,101489.77
2018-09-03T21:11:29.825Z,101480.39
2018-09-03T21:13:58.953Z,101488.02
2018-09-03T21:16:27.738Z,101483.64
2018-09-03T21:18:56.530Z,101491.08
2018-09-03T21:21:25.857Z,101485.33
2018-09-03T21:23:54.615Z,101476.67
2018-09-03T21:26:23.415Z,101485.59
2018-09-03T21:28:52.619Z,101483.12
2018-09-03T21:31:21.797Z,101485.33
2018-09-03T21:33:51.478Z,101482.72
2018-09-03T21:36:20.261Z,101483.46
2018-09-03T21:38:55.518Z,101486.71
2018-09-03T21:41:24.945Z,101486.94
2018-09-03T21:43:54.204Z,101486.37
2018-09-03T21:46:23.417Z,101491.30
2018-09-03T21:48:52.172Z,101500.17
2018-09-03T21:51:21.002Z,101496.33
2018-09-03T21:53:50.242Z,101493.12
2018-09-03T21:56:18.999Z,101494.72
2018-09-03T21:58:48.045Z,101492.11
2018-09-03T22:01:17.049Z,101499.23
2018-09-03T22:03:46.387Z,101498.42
2018-09-03T22:06:15.182Z,101495.88
2018-09-03T22:08:44.358Z,101496.48
2018-09-03T22:11:13.090Z,101495.88
2018-09-03T22:13:41.886Z,101491.89
2018-09-03T22:16:10.661Z,101489.35
2018-09-03T22:18:40.400Z,101488.94
2018-09-03T22:21:09.582Z,101488.27
2018-09-03T22:23:38.783Z,101487.48
2018-09-03T22:26:08.280Z,101490.02
2018-09-03T22:28:37.925Z,101484.64
2018-09-03T22:31:07.342Z,101480.72
2018-09-03T22:33:36.110Z,101484.86
2018-09-03T22:36:04.974Z,101477.96
2018-09-03T22:38:40.348Z,101480.50
2018-09-03T22:41:09.147Z,101484.08
2018-09-03T22:43:38.831Z,101488.78
2018-09-03T22:46:08.877Z,101489.38
2018-09-03T22:48:37.630Z,101487.33
2018-09-03T22:51:06.595Z,101487.47
2018-09-03T22:53:35.418Z,101490.60
2018-09-03T22:56:04.155Z,101484.89
2018-09-03T22:58:32.871Z,101490.75
2018-09-03T23:01:02.710Z,101485.38
2018-09-03T23:03:32.728Z,101483.80
2018-09-03T23:06:02.369Z,101481.74
2018-09-03T23:08:32.221Z,101483.86
2018-09-03T23:11:02.020Z,101480.66
2018-09-03T23:13:32.467Z,101490.54
2018-09-03T23:16:02.799Z,101483.22
2018-09-03T23:18:31.924Z,101484.37
2018-09-03T23:21:00.706Z,101484.15
2018-09-03T23:23:29.858Z,101483.93
2018-09-03T23:25:58.991Z,101483.51
2018-09-03T23:28:28.325Z,101483.43
2018-09-03T23:30:57.959Z,101482.42
2018-09-03T23:33:26.742Z,101480.17
2018-09-03T23:35:55.588Z,101478.94
2018-09-03T23:38:24.326Z,101476.45
2018-09-03T23:40:53.081Z,101478.77
2018-09-03T23:43:22.111Z,101473.95
2018-09-03T23:45:51.137Z,101471.34
2018-09-03T23:48:20.460Z,101472.52
2018-09-03T23:50:49.589Z,101469.68
2018-09-03T23:53:19.035Z,101474.89
2018-09-03T23:55:48.142Z,101473.65
2018-09-03T23:58:17.198Z,101473.95
